sensor_id;sensor_type;location;lat;lon;timestamp;temperature;humidity
4461;DHT22;2243;48.812;9.232;2022-07-17T00:01:27;18.20;88.20
4461;DHT22;2243;48.812;9.232;2022-07-17T00:03:59;18.20;87.50
4461;DHT22;2243;48.812;9.232;2022-07-17T00:06:30;18.00;88.20
4461;DHT22;2243;48.812;9.232;2022-07-17T00:09:01;17.70;88.90
4461;DHT22;2243;48.812;9.232;2022-07-17T00:11:32;17.90;88.90
4461;DHT22;2243;48.812;9.232;2022-07-17T00:14:04;17.80;88.80
4461;DHT22;2243;48.812;9.232;2022-07-17T00:16:35;17.70;89.20
4461;DHT22;2243;48.812;9.232;2022-07-17T00:19:06;17.70;89.50
4461;DHT22;2243;48.812;9.232;2022-07-17T00:21:37;17.70;89.30
4461;DHT22;2243;48.812;9.232;2022-07-17T00:24:08;17.80;89.20
4461;DHT22;2243;48.812;9.232;2022-07-17T00:26:41;17.90;89.30
4461;DHT22;2243;48.812;9.232;2022-07-17T00:29:12;17.70;90.00
4461;DHT22;2243;48.812;9.232;2022-07-17T00:31:44;17.60;90.20
4461;DHT22;2243;48.812;9.232;2022-07-17T00:34:17;17.50;90.50
4461;DHT22;2243;48.812;9.232;2022-07-17T00:36:51;17.50;90.60
4461;DHT22;2243;48.812;9.232;2022-07-17T00:39:22;17.40;90.90
4461;DHT22;2243;48.812;9.232;2022-07-17T00:41:53;17.40;91.00
4461;DHT22;2243;48.812;9.232;2022-07-17T00:44:26;17.30;91.10
4461;DHT22;2243;48.812;9.232;2022-07-17T00:46:58;17.30;91.00
4461;DHT22;2243;48.812;9.232;2022-07-17T00:49:29;17.20;91.40
4461;DHT22;2243;48.812;9.232;2022-07-17T00:52:00;17.20;91.30
4461;DHT22;2243;48.812;9.232;2022-07-17T00:54:35;17.30;91.40
4461;DHT22;2243;48.812;9.232;2022-07-17T00:57:12;17.20;91.50
4461;DHT22;2243;48.812;9.232;2022-07-17T00:59:45;17.10;91.70
4461;DHT22;2243;48.812;9.232;2022-07-17T01:02:16;17.10;92.00
4461;DHT22;2243;48.812;9.232;2022-07-17T01:04:47;17.00;92.20
4461;DHT22;2243;48.812;9.232;2022-07-17T01:07:18;17.00;92.20
4461;DHT22;2243;48.812;9.232;2022-07-17T01:09:49;16.90;92.20
4461;DHT22;2243;48.812;9.232;2022-07-17T01:12:21;16.90;92.30
4461;DHT22;2243;48.812;9.232;2022-07-17T01:14:55;16.90;92.20
4461;DHT22;2243;48.812;9.232;2022-07-17T01:17:26;16.90;92.40
4461;DHT22;2243;48.812;9.232;2022-07-17T01:19:57;17.00;92.40
4461;DHT22;2243;48.812;9.232;2022-07-17T01:22:28;17.00;92.40
4461;DHT22;2243;48.812;9.232;2022-07-17T01:25:00;16.80;92.60
4461;DHT22;2243;48.812;9.232;2022-07-17T01:27:31;16.80;92.70
4461;DHT22;2243;48.812;9.232;2022-07-17T01:30:03;16.70;92.90
4461;DHT22;2243;48.812;9.232;2022-07-17T01:32:38;16.70;93.10
4461;DHT22;2243;48.812;9.232;2022-07-17T01:35:13;16.60;93.30
4461;DHT22;2243;48.812;9.232;2022-07-17T01:37:45;16.70;93.20
4461;DHT22;2243;48.812;9.232;2022-07-17T01:40:19;16.70;93.30
4461;DHT22;2243;48.812;9.232;2022-07-17T01:42:50;16.50;93.60
4461;DHT22;2243;48.812;9.232;2022-07-17T01:45:21;16.60;93.80
4461;DHT22;2243;48.812;9.232;2022-07-17T01:47:52;16.70;93.70
4461;DHT22;2243;48.812;9.232;2022-07-17T01:50:23;16.60;93.70
4461;DHT22;2243;48.812;9.232;2022-07-17T01:52:54;16.60;94.00
4461;DHT22;2243;48.812;9.232;2022-07-17T01:55:25;16.30;94.50
4461;DHT22;2243;48.812;9.232;2022-07-17T01:57:56;16.20;94.90
4461;DHT22;2243;48.812;9.232;2022-07-17T02:00:27;16.10;95.20
4461;DHT22;2243;48.812;9.232;2022-07-17T02:02:59;16.10;95.50
4461;DHT22;2243;48.812;9.232;2022-07-17T02:05:30;16.10;95.60
4461;DHT22;2243;48.812;9.232;2022-07-17T02:08:01;16.10;95.80
4461;DHT22;2243;48.812;9.232;2022-07-17T02:10:32;16.20;95.70
4461;DHT22;2243;48.812;9.232;2022-07-17T02:13:03;16.10;96.00
4461;DHT22;2243;48.812;9.232;2022-07-17T02:15:34;16.10;96.10
4461;DHT22;2243;48.812;9.232;2022-07-17T02:18:05;16.00;96.20
4461;DHT22;2243;48.812;9.232;2022-07-17T02:20:36;16.00;96.40
4461;DHT22;2243;48.812;9.232;2022-07-17T02:23:07;16.20;96.20
4461;DHT22;2243;48.812;9.232;2022-07-17T02:25:38;16.30;95.90
4461;DHT22;2243;48.812;9.232;2022-07-17T02:28:09;16.10;96.20
4461;DHT22;2243;48.812;9.232;2022-07-17T02:30:40;16.20;96.20
4461;DHT22;2243;48.812;9.232;2022-07-17T02:33:12;16.20;96.10
4461;DHT22;2243;48.812;9.232;2022-07-17T02:35:43;16.20;96.10
4461;DHT22;2243;48.812;9.232;2022-07-17T02:38:14;16.10;96.20
4461;DHT22;2243;48.812;9.232;2022-07-17T02:40:45;15.90;96.50
4461;DHT22;2243;48.812;9.232;2022-07-17T02:43:18;16.00;96.60
4461;DHT22;2243;48.812;9.232;2022-07-17T02:45:49;15.90;96.70
4461;DHT22;2243;48.812;9.232;2022-07-17T02:48:20;15.80;97.10
4461;DHT22;2243;48.812;9.232;2022-07-17T02:50:51;15.90;96.90
4461;DHT22;2243;48.812;9.232;2022-07-17T02:53:22;16.00;96.70
4461;DHT22;2243;48.812;9.232;2022-07-17T02:55:53;15.90;96.60
4461;DHT22;2243;48.812;9.232;2022-07-17T02:58:24;15.70;97.10
4461;DHT22;2243;48.812;9.232;2022-07-17T03:00:56;15.60;97.40
4461;DHT22;2243;48.812;9.232;2022-07-17T03:03:27;15.60;97.60
4461;DHT22;2243;48.812;9.232;2022-07-17T03:05:58;15.70;97.50
4461;DHT22;2243;48.812;9.232;2022-07-17T03:08:29;15.70;97.50
4461;DHT22;2243;48.812;9.232;2022-07-17T03:11:01;15.60;97.70
4461;DHT22;2243;48.812;9.232;2022-07-17T03:13:32;15.60;97.60
4461;DHT22;2243;48.812;9.232;2022-07-17T03:16:03;15.50;97.90
4461;DHT22;2243;48.812;9.232;2022-07-17T03:18:35;15.40;98.20
4461;DHT22;2243;48.812;9.232;2022-07-17T03:21:07;15.50;98.20
4461;DHT22;2243;48.812;9.232;2022-07-17T03:23:38;15.60;98.00
4461;DHT22;2243;48.812;9.232;2022-07-17T03:26:09;15.40;98.10
4461;DHT22;2243;48.812;9.232;2022-07-17T03:28:40;15.50;98.30
4461;DHT22;2243;48.812;9.232;2022-07-17T03:31:11;15.40;98.40
4461;DHT22;2243;48.812;9.232;2022-07-17T03:33:42;15.50;98.50
4461;DHT22;2243;48.812;9.232;2022-07-17T03:36:13;15.50;98.40
4461;DHT22;2243;48.812;9.232;2022-07-17T03:38:44;15.50;98.50
4461;DHT22;2243;48.812;9.232;2022-07-17T03:41:15;15.50;98.50
4461;DHT22;2243;48.812;9.232;2022-07-17T03:43:49;15.50;98.30
4461;DHT22;2243;48.812;9.232;2022-07-17T03:46:21;15.30;98.50
4461;DHT22;2243;48.812;9.232;2022-07-17T03:48:52;15.30;98.70
4461;DHT22;2243;48.812;9.232;2022-07-17T03:51:24;15.20;99.00
4461;DHT22;2243;48.812;9.232;2022-07-17T03:53:55;15.00;99.30
4461;DHT22;2243;48.812;9.232;2022-07-17T03:56:29;15.00;99.40
4461;DHT22;2243;48.812;9.232;2022-07-17T03:59:00;15.10;99.30
4461;DHT22;2243;48.812;9.232;2022-07-17T04:01:31;15.10;99.10
4461;DHT22;2243;48.812;9.232;2022-07-17T04:04:02;15.00;99.50
4461;DHT22;2243;48.812;9.232;2022-07-17T04:06:33;15.00;99.50
4461;DHT22;2243;48.812;9.232;2022-07-17T04:09:05;14.90;99.90
4461;DHT22;2243;48.812;9.232;2022-07-17T04:11:36;14.90;99.90
4461;DHT22;2243;48.812;9.232;2022-07-17T04:14:10;14.90;99.90
4461;DHT22;2243;48.812;9.232;2022-07-17T04:16:41;14.90;99.90
4461;DHT22;2243;48.812;9.232;2022-07-17T04:19:14;15.00;99.90
4461;DHT22;2243;48.812;9.232;2022-07-17T04:21:45;14.90;99.90
4461;DHT22;2243;48.812;9.232;2022-07-17T04:24:21;15.00;99.90
4461;DHT22;2243;48.812;9.232;2022-07-17T04:26:52;15.20;99.90
4461;DHT22;2243;48.812;9.232;2022-07-17T04:29:25;15.30;99.80
4461;DHT22;2243;48.812;9.232;2022-07-17T04:31:56;15.10;99.90
4461;DHT22;2243;48.812;9.232;2022-07-17T04:34:28;15.10;99.90
4461;DHT22;2243;48.812;9.232;2022-07-17T04:37:00;15.10;99.90
4461;DHT22;2243;48.812;9.232;2022-07-17T04:39:32;15.30;99.80
4461;DHT22;2243;48.812;9.232;2022-07-17T04:42:03;15.50;99.30
4461;DHT22;2243;48.812;9.232;2022-07-17T04:44:34;15.40;99.40
4461;DHT22;2243;48.812;9.232;2022-07-17T04:47:05;15.40;99.60
4461;DHT22;2243;48.812;9.232;2022-07-17T04:49:36;15.40;99.70
4461;DHT22;2243;48.812;9.232;2022-07-17T04:52:08;15.40;99.60
4461;DHT22;2243;48.812;9.232;2022-07-17T04:54:39;15.40;99.70
4461;DHT22;2243;48.812;9.232;2022-07-17T04:57:10;15.50;99.90
4461;DHT22;2243;48.812;9.232;2022-07-17T04:59:44;15.50;99.90
4461;DHT22;2243;48.812;9.232;2022-07-17T05:02:15;15.60;99.80
4461;DHT22;2243;48.812;9.232;2022-07-17T05:04:46;15.70;99.70
4461;DHT22;2243;48.812;9.232;2022-07-17T05:07:20;15.70;99.50
4461;DHT22;2243;48.812;9.232;2022-07-17T05:09:51;15.90;99.30
4461;DHT22;2243;48.812;9.232;2022-07-17T05:12:22;16.10;98.80
4461;DHT22;2243;48.812;9.232;2022-07-17T05:14:53;16.20;98.90
4461;DHT22;2243;48.812;9.232;2022-07-17T05:17:24;16.30;98.60
4461;DHT22;2243;48.812;9.232;2022-07-17T05:19:55;16.40;98.30
4461;DHT22;2243;48.812;9.232;2022-07-17T05:22:26;16.50;97.90
4461;DHT22;2243;48.812;9.232;2022-07-17T05:24:57;16.50;97.80
4461;DHT22;2243;48.812;9.232;2022-07-17T05:27:28;16.50;98.00
4461;DHT22;2243;48.812;9.232;2022-07-17T05:29:59;16.50;98.00
4461;DHT22;2243;48.812;9.232;2022-07-17T05:32:30;16.50;97.70
4461;DHT22;2243;48.812;9.232;2022-07-17T05:35:01;16.50;97.60
4461;DHT22;2243;48.812;9.232;2022-07-17T05:37:33;16.60;97.60
4461;DHT22;2243;48.812;9.232;2022-07-17T05:40:04;16.60;97.40
4461;DHT22;2243;48.812;9.232;2022-07-17T05:42:36;16.70;97.10
4461;DHT22;2243;48.812;9.232;2022-07-17T05:45:07;16.80;96.80
4461;DHT22;2243;48.812;9.232;2022-07-17T05:47:39;16.80;96.70
4461;DHT22;2243;48.812;9.232;2022-07-17T05:50:10;16.90;96.50
4461;DHT22;2243;48.812;9.232;2022-07-17T05:52:41;16.90;96.50
4461;DHT22;2243;48.812;9.232;2022-07-17T05:55:14;17.20;96.00
4461;DHT22;2243;48.812;9.232;2022-07-17T05:57:45;17.50;95.40
4461;DHT22;2243;48.812;9.232;2022-07-17T06:00:16;17.60;95.20
4461;DHT22;2243;48.812;9.232;2022-07-17T06:02:49;17.60;95.10
4461;DHT22;2243;48.812;9.232;2022-07-17T06:05:20;17.60;94.80
4461;DHT22;2243;48.812;9.232;2022-07-17T06:07:51;17.60;94.70
4461;DHT22;2243;48.812;9.232;2022-07-17T06:10:24;17.60;94.50
4461;DHT22;2243;48.812;9.232;2022-07-17T06:12:55;17.70;94.60
4461;DHT22;2243;48.812;9.232;2022-07-17T06:15:27;17.90;94.10
4461;DHT22;2243;48.812;9.232;2022-07-17T06:18:02;18.10;93.60
4461;DHT22;2243;48.812;9.232;2022-07-17T06:20:33;18.10;93.70
4461;DHT22;2243;48.812;9.232;2022-07-17T06:23:04;18.00;93.60
4461;DHT22;2243;48.812;9.232;2022-07-17T06:25:35;18.00;93.70
4461;DHT22;2243;48.812;9.232;2022-07-17T06:28:06;18.10;93.80
4461;DHT22;2243;48.812;9.232;2022-07-17T06:30:37;18.40;93.20
4461;DHT22;2243;48.812;9.232;2022-07-17T06:33:08;18.50;93.00
4461;DHT22;2243;48.812;9.232;2022-07-17T06:35:39;18.60;92.70
4461;DHT22;2243;48.812;9.232;2022-07-17T06:38:15;18.70;93.00
4461;DHT22;2243;48.812;9.232;2022-07-17T06:40:50;18.70;92.80
4461;DHT22;2243;48.812;9.232;2022-07-17T06:43:21;18.70;93.00
4461;DHT22;2243;48.812;9.232;2022-07-17T06:45:53;18.60;93.40
4461;DHT22;2243;48.812;9.232;2022-07-17T06:48:25;18.70;93.20
4461;DHT22;2243;48.812;9.232;2022-07-17T06:50:55;19.00;92.10
4461;DHT22;2243;48.812;9.232;2022-07-17T06:53:27;19.00;92.10
4461;DHT22;2243;48.812;9.232;2022-07-17T06:55:58;19.10;91.80
4461;DHT22;2243;48.812;9.232;2022-07-17T06:58:28;19.20;92.00
4461;DHT22;2243;48.812;9.232;2022-07-17T07:01:00;19.20;91.80
4461;DHT22;2243;48.812;9.232;2022-07-17T07:03:31;19.20;91.40
4461;DHT22;2243;48.812;9.232;2022-07-17T07:06:02;19.30;91.60
4461;DHT22;2243;48.812;9.232;2022-07-17T07:08:33;19.40;91.70
4461;DHT22;2243;48.812;9.232;2022-07-17T07:11:05;19.40;90.20
4461;DHT22;2243;48.812;9.232;2022-07-17T07:13:36;19.50;90.80
4461;DHT22;2243;48.812;9.232;2022-07-17T07:16:07;19.60;91.00
4461;DHT22;2243;48.812;9.232;2022-07-17T07:18:38;19.90;95.40
4461;DHT22;2243;48.812;9.232;2022-07-17T07:21:09;20.10;94.00
4461;DHT22;2243;48.812;9.232;2022-07-17T07:23:40;20.30;92.00
4461;DHT22;2243;48.812;9.232;2022-07-17T07:26:11;20.40;90.60
4461;DHT22;2243;48.812;9.232;2022-07-17T07:28:42;20.60;92.20
4461;DHT22;2243;48.812;9.232;2022-07-17T07:31:13;20.80;91.20
4461;DHT22;2243;48.812;9.232;2022-07-17T07:33:44;20.80;87.20
4461;DHT22;2243;48.812;9.232;2022-07-17T07:36:16;20.90;88.70
4461;DHT22;2243;48.812;9.232;2022-07-17T07:38:47;20.90;87.70
4461;DHT22;2243;48.812;9.232;2022-07-17T07:41:21;21.00;89.10
4461;DHT22;2243;48.812;9.232;2022-07-17T07:43:52;21.10;86.40
4461;DHT22;2243;48.812;9.232;2022-07-17T07:46:24;21.20;86.70
4461;DHT22;2243;48.812;9.232;2022-07-17T07:48:56;21.30;85.40
4461;DHT22;2243;48.812;9.232;2022-07-17T07:51:27;21.30;85.70
4461;DHT22;2243;48.812;9.232;2022-07-17T07:54:18;21.40;84.70
4461;DHT22;2243;48.812;9.232;2022-07-17T07:56:49;21.50;84.80
4461;DHT22;2243;48.812;9.232;2022-07-17T07:59:20;21.50;84.10
4461;DHT22;2243;48.812;9.232;2022-07-17T08:01:52;21.60;82.30
4461;DHT22;2243;48.812;9.232;2022-07-17T08:04:23;21.60;83.30
4461;DHT22;2243;48.812;9.232;2022-07-17T08:06:55;21.70;83.20
4461;DHT22;2243;48.812;9.232;2022-07-17T08:09:26;21.80;83.10
4461;DHT22;2243;48.812;9.232;2022-07-17T08:11:57;21.90;82.10
4461;DHT22;2243;48.812;9.232;2022-07-17T08:14:30;21.90;81.70
4461;DHT22;2243;48.812;9.232;2022-07-17T08:17:01;21.90;80.60
4461;DHT22;2243;48.812;9.232;2022-07-17T08:19:32;22.00;81.80
4461;DHT22;2243;48.812;9.232;2022-07-17T08:22:03;22.00;81.50
4461;DHT22;2243;48.812;9.232;2022-07-17T08:24:34;22.10;81.00
4461;DHT22;2243;48.812;9.232;2022-07-17T08:27:05;22.20;80.40
4461;DHT22;2243;48.812;9.232;2022-07-17T08:29:37;22.20;79.90
4461;DHT22;2243;48.812;9.232;2022-07-17T08:32:28;22.30;80.90
4461;DHT22;2243;48.812;9.232;2022-07-17T08:34:59;22.30;77.10
4461;DHT22;2243;48.812;9.232;2022-07-17T08:37:30;22.20;78.20
4461;DHT22;2243;48.812;9.232;2022-07-17T08:40:01;22.30;78.50
4461;DHT22;2243;48.812;9.232;2022-07-17T08:42:32;22.40;78.60
4461;DHT22;2243;48.812;9.232;2022-07-17T08:45:13;22.50;79.30
4461;DHT22;2243;48.812;9.232;2022-07-17T08:47:45;22.60;78.80
4461;DHT22;2243;48.812;9.232;2022-07-17T08:50:25;22.60;79.10
4461;DHT22;2243;48.812;9.232;2022-07-17T08:52:59;22.70;77.50
4461;DHT22;2243;48.812;9.232;2022-07-17T08:55:30;22.80;77.50
4461;DHT22;2243;48.812;9.232;2022-07-17T08:58:01;22.90;78.00
4461;DHT22;2243;48.812;9.232;2022-07-17T09:00:33;23.00;78.70
4461;DHT22;2243;48.812;9.232;2022-07-17T09:03:06;23.10;77.60
4461;DHT22;2243;48.812;9.232;2022-07-17T09:05:40;23.10;76.00
4461;DHT22;2243;48.812;9.232;2022-07-17T09:08:21;23.10;77.30
4461;DHT22;2243;48.812;9.232;2022-07-17T09:10:53;23.20;77.40
4461;DHT22;2243;48.812;9.232;2022-07-17T09:13:27;23.30;76.40
4461;DHT22;2243;48.812;9.232;2022-07-17T09:16:08;23.50;75.70
4461;DHT22;2243;48.812;9.232;2022-07-17T09:18:49;23.60;75.40
4461;DHT22;2243;48.812;9.232;2022-07-17T09:21:24;23.60;74.90
4461;DHT22;2243;48.812;9.232;2022-07-17T09:24:04;23.70;74.40
4461;DHT22;2243;48.812;9.232;2022-07-17T09:26:43;23.70;73.80
4461;DHT22;2243;48.812;9.232;2022-07-17T09:29:15;23.90;73.20
4461;DHT22;2243;48.812;9.232;2022-07-17T09:31:51;24.00;72.20
4461;DHT22;2243;48.812;9.232;2022-07-17T09:34:22;24.00;73.00
4461;DHT22;2243;48.812;9.232;2022-07-17T09:37:01;24.10;71.80
4461;DHT22;2243;48.812;9.232;2022-07-17T09:39:38;24.20;71.60
4461;DHT22;2243;48.812;9.232;2022-07-17T09:42:22;24.30;70.40
4461;DHT22;2243;48.812;9.232;2022-07-17T09:45:03;24.40;68.60
4461;DHT22;2243;48.812;9.232;2022-07-17T09:47:39;24.40;68.90
4461;DHT22;2243;48.812;9.232;2022-07-17T09:50:13;24.40;68.30
4461;DHT22;2243;48.812;9.232;2022-07-17T09:52:44;24.50;68.60
4461;DHT22;2243;48.812;9.232;2022-07-17T09:55:19;24.70;68.70
4461;DHT22;2243;48.812;9.232;2022-07-17T09:58:12;24.80;67.20
4461;DHT22;2243;48.812;9.232;2022-07-17T10:00:43;24.80;64.80
4461;DHT22;2243;48.812;9.232;2022-07-17T10:03:18;24.80;65.20
4461;DHT22;2243;48.812;9.232;2022-07-17T10:05:51;25.00;65.60
4461;DHT22;2243;48.812;9.232;2022-07-17T10:08:25;24.90;64.80
4461;DHT22;2243;48.812;9.232;2022-07-17T10:10:57;24.90;65.00
4461;DHT22;2243;48.812;9.232;2022-07-17T10:13:29;25.00;64.80
4461;DHT22;2243;48.812;9.232;2022-07-17T10:16:03;25.10;64.70
4461;DHT22;2243;48.812;9.232;2022-07-17T10:18:42;25.10;65.00
4461;DHT22;2243;48.812;9.232;2022-07-17T10:21:17;25.10;65.00
4461;DHT22;2243;48.812;9.232;2022-07-17T10:26:34;25.20;63.30
4461;DHT22;2243;48.812;9.232;2022-07-17T10:29:39;25.30;61.70
4461;DHT22;2243;48.812;9.232;2022-07-17T10:32:18;25.20;62.30
4461;DHT22;2243;48.812;9.232;2022-07-17T10:35:05;25.10;62.70
4461;DHT22;2243;48.812;9.232;2022-07-17T10:37:39;25.30;63.00
4461;DHT22;2243;48.812;9.232;2022-07-17T10:40:22;25.50;62.90
4461;DHT22;2243;48.812;9.232;2022-07-17T10:43:04;25.60;63.20
4461;DHT22;2243;48.812;9.232;2022-07-17T10:45:42;25.80;63.10
4461;DHT22;2243;48.812;9.232;2022-07-17T10:48:21;25.90;61.90
4461;DHT22;2243;48.812;9.232;2022-07-17T10:50:59;26.00;59.80
4461;DHT22;2243;48.812;9.232;2022-07-17T10:53:35;26.00;60.30
4461;DHT22;2243;48.812;9.232;2022-07-17T10:56:08;26.00;58.50
4461;DHT22;2243;48.812;9.232;2022-07-17T10:58:44;26.10;59.30
4461;DHT22;2243;48.812;9.232;2022-07-17T11:01:17;25.90;60.30
4461;DHT22;2243;48.812;9.232;2022-07-17T11:03:59;26.10;59.50
4461;DHT22;2243;48.812;9.232;2022-07-17T11:06:34;26.10;59.70
4461;DHT22;2243;48.812;9.232;2022-07-17T11:09:12;26.10;58.80
4461;DHT22;2243;48.812;9.232;2022-07-17T11:11:50;26.30;60.00
4461;DHT22;2243;48.812;9.232;2022-07-17T11:14:24;26.50;60.50
4461;DHT22;2243;48.812;9.232;2022-07-17T11:16:58;26.30;60.40
4461;DHT22;2243;48.812;9.232;2022-07-17T11:19:35;26.50;61.80
4461;DHT22;2243;48.812;9.232;2022-07-17T11:22:14;26.70;60.90
4461;DHT22;2243;48.812;9.232;2022-07-17T11:24:46;26.90;60.00
4461;DHT22;2243;48.812;9.232;2022-07-17T11:27:23;27.50;59.60
4461;DHT22;2243;48.812;9.232;2022-07-17T11:29:57;28.30;59.60
4461;DHT22;2243;48.812;9.232;2022-07-17T11:32:38;29.70;57.10
4461;DHT22;2243;48.812;9.232;2022-07-17T11:35:18;30.80;54.40
4461;DHT22;2243;48.812;9.232;2022-07-17T11:38:09;30.60;53.80
4461;DHT22;2243;48.812;9.232;2022-07-17T11:40:48;31.00;53.70
4461;DHT22;2243;48.812;9.232;2022-07-17T11:43:39;31.70;52.20
4461;DHT22;2243;48.812;9.232;2022-07-17T11:46:11;32.80;50.00
4461;DHT22;2243;48.812;9.232;2022-07-17T11:48:43;32.20;50.90
4461;DHT22;2243;48.812;9.232;2022-07-17T11:51:14;32.20;51.60
4461;DHT22;2243;48.812;9.232;2022-07-17T11:53:47;31.90;51.30
4461;DHT22;2243;48.812;9.232;2022-07-17T11:56:21;32.10;50.60
4461;DHT22;2243;48.812;9.232;2022-07-17T11:58:52;31.80;51.10
4461;DHT22;2243;48.812;9.232;2022-07-17T12:01:39;31.40;52.10
4461;DHT22;2243;48.812;9.232;2022-07-17T12:04:14;31.40;50.90
4461;DHT22;2243;48.812;9.232;2022-07-17T12:06:59;31.40;51.90
4461;DHT22;2243;48.812;9.232;2022-07-17T12:09:33;31.10;50.10
4461;DHT22;2243;48.812;9.232;2022-07-17T12:12:05;31.30;51.00
4461;DHT22;2243;48.812;9.232;2022-07-17T12:14:46;31.30;50.80
4461;DHT22;2243;48.812;9.232;2022-07-17T12:17:21;30.90;51.60
4461;DHT22;2243;48.812;9.232;2022-07-17T12:19:53;30.90;50.70
4461;DHT22;2243;48.812;9.232;2022-07-17T12:22:24;30.80;52.00
4461;DHT22;2243;48.812;9.232;2022-07-17T12:24:55;30.80;50.10
4461;DHT22;2243;48.812;9.232;2022-07-17T12:27:26;30.50;49.90
4461;DHT22;2243;48.812;9.232;2022-07-17T12:29:57;31.20;48.80
4461;DHT22;2243;48.812;9.232;2022-07-17T12:32:28;31.00;48.60
4461;DHT22;2243;48.812;9.232;2022-07-17T12:34:59;30.80;49.20
4461;DHT22;2243;48.812;9.232;2022-07-17T12:37:31;31.20;49.50
4461;DHT22;2243;48.812;9.232;2022-07-17T12:40:03;31.30;49.20
4461;DHT22;2243;48.812;9.232;2022-07-17T12:42:35;31.00;48.80
4461;DHT22;2243;48.812;9.232;2022-07-17T12:45:07;31.30;47.70
4461;DHT22;2243;48.812;9.232;2022-07-17T12:47:38;31.30;46.30
4461;DHT22;2243;48.812;9.232;2022-07-17T12:50:09;31.00;46.70
4461;DHT22;2243;48.812;9.232;2022-07-17T12:52:40;31.00;48.50
4461;DHT22;2243;48.812;9.232;2022-07-17T12:55:11;31.20;48.00
4461;DHT22;2243;48.812;9.232;2022-07-17T12:57:42;31.30;46.70
4461;DHT22;2243;48.812;9.232;2022-07-17T13:00:14;31.10;47.80
4461;DHT22;2243;48.812;9.232;2022-07-17T13:02:45;31.00;46.80
4461;DHT22;2243;48.812;9.232;2022-07-17T13:05:31;31.20;46.40
4461;DHT22;2243;48.812;9.232;2022-07-17T13:08:02;31.10;46.30
4461;DHT22;2243;48.812;9.232;2022-07-17T13:10:34;30.90;46.60
4461;DHT22;2243;48.812;9.232;2022-07-17T13:13:07;30.50;47.30
4461;DHT22;2243;48.812;9.232;2022-07-17T13:15:38;30.50;48.40
4461;DHT22;2243;48.812;9.232;2022-07-17T13:18:09;30.80;47.00
4461;DHT22;2243;48.812;9.232;2022-07-17T13:20:42;30.90;48.20
4461;DHT22;2243;48.812;9.232;2022-07-17T13:23:13;31.20;48.40
4461;DHT22;2243;48.812;9.232;2022-07-17T13:25:44;31.50;47.60
4461;DHT22;2243;48.812;9.232;2022-07-17T13:28:15;31.70;46.40
4461;DHT22;2243;48.812;9.232;2022-07-17T13:30:46;31.60;45.80
4461;DHT22;2243;48.812;9.232;2022-07-17T13:33:18;31.30;46.90
4461;DHT22;2243;48.812;9.232;2022-07-17T13:35:52;31.20;46.70
4461;DHT22;2243;48.812;9.232;2022-07-17T13:38:24;31.30;47.20
4461;DHT22;2243;48.812;9.232;2022-07-17T13:40:55;31.40;46.70
4461;DHT22;2243;48.812;9.232;2022-07-17T13:43:29;31.50;45.80
4461;DHT22;2243;48.812;9.232;2022-07-17T13:46:00;31.50;47.00
4461;DHT22;2243;48.812;9.232;2022-07-17T13:48:31;31.70;47.30
4461;DHT22;2243;48.812;9.232;2022-07-17T13:51:02;31.70;44.60
4461;DHT22;2243;48.812;9.232;2022-07-17T13:53:34;31.60;46.20
4461;DHT22;2243;48.812;9.232;2022-07-17T13:56:07;31.70;46.10
4461;DHT22;2243;48.812;9.232;2022-07-17T13:58:38;32.00;45.50
4461;DHT22;2243;48.812;9.232;2022-07-17T14:01:09;32.20;45.70
4461;DHT22;2243;48.812;9.232;2022-07-17T14:03:48;32.00;43.20
4461;DHT22;2243;48.812;9.232;2022-07-17T14:06:20;31.80;43.30
4461;DHT22;2243;48.812;9.232;2022-07-17T14:08:52;31.70;45.70
4461;DHT22;2243;48.812;9.232;2022-07-17T14:11:25;32.10;44.70
4461;DHT22;2243;48.812;9.232;2022-07-17T14:13:56;32.30;43.90
4461;DHT22;2243;48.812;9.232;2022-07-17T14:16:27;32.20;44.80
4461;DHT22;2243;48.812;9.232;2022-07-17T14:18:58;32.60;43.70
4461;DHT22;2243;48.812;9.232;2022-07-17T14:21:37;32.60;42.70
4461;DHT22;2243;48.812;9.232;2022-07-17T14:24:08;32.50;44.00
4461;DHT22;2243;48.812;9.232;2022-07-17T14:26:39;32.40;43.80
4461;DHT22;2243;48.812;9.232;2022-07-17T14:29:14;32.50;44.00
4461;DHT22;2243;48.812;9.232;2022-07-17T14:31:55;32.60;42.70
4461;DHT22;2243;48.812;9.232;2022-07-17T14:34:26;32.40;43.50
4461;DHT22;2243;48.812;9.232;2022-07-17T14:36:58;32.40;43.10
4461;DHT22;2243;48.812;9.232;2022-07-17T14:39:29;32.50;43.40
4461;DHT22;2243;48.812;9.232;2022-07-17T14:42:01;32.60;44.20
4461;DHT22;2243;48.812;9.232;2022-07-17T14:44:32;32.90;44.70
4461;DHT22;2243;48.812;9.232;2022-07-17T14:47:04;33.00;43.40
4461;DHT22;2243;48.812;9.232;2022-07-17T14:49:35;33.10;43.30
4461;DHT22;2243;48.812;9.232;2022-07-17T14:52:06;33.20;43.00
4461;DHT22;2243;48.812;9.232;2022-07-17T14:54:38;33.20;43.10
4461;DHT22;2243;48.812;9.232;2022-07-17T14:57:09;33.20;45.00
4461;DHT22;2243;48.812;9.232;2022-07-17T14:59:40;33.40;42.90
4461;DHT22;2243;48.812;9.232;2022-07-17T15:02:11;33.20;43.60
4461;DHT22;2243;48.812;9.232;2022-07-17T15:04:42;33.10;43.80
4461;DHT22;2243;48.812;9.232;2022-07-17T15:07:13;33.20;44.30
4461;DHT22;2243;48.812;9.232;2022-07-17T15:09:44;33.40;44.90
4461;DHT22;2243;48.812;9.232;2022-07-17T15:12:15;33.60;44.80
4461;DHT22;2243;48.812;9.232;2022-07-17T15:14:51;33.60;43.20
4461;DHT22;2243;48.812;9.232;2022-07-17T15:17:22;33.90;42.50
4461;DHT22;2243;48.812;9.232;2022-07-17T15:19:55;34.10;41.90
4461;DHT22;2243;48.812;9.232;2022-07-17T15:22:26;33.80;42.80
4461;DHT22;2243;48.812;9.232;2022-07-17T15:24:57;33.70;42.70
4461;DHT22;2243;48.812;9.232;2022-07-17T15:27:28;33.70;43.10
4461;DHT22;2243;48.812;9.232;2022-07-17T15:30:00;33.50;43.80
4461;DHT22;2243;48.812;9.232;2022-07-17T15:32:31;33.20;43.80
4461;DHT22;2243;48.812;9.232;2022-07-17T15:35:05;33.40;44.70
4461;DHT22;2243;48.812;9.232;2022-07-17T15:37:36;33.40;45.00
4461;DHT22;2243;48.812;9.232;2022-07-17T15:40:07;33.30;44.50
4461;DHT22;2243;48.812;9.232;2022-07-17T15:42:39;33.30;46.30
4461;DHT22;2243;48.812;9.232;2022-07-17T15:45:10;33.30;45.90
4461;DHT22;2243;48.812;9.232;2022-07-17T15:47:41;33.50;45.60
4461;DHT22;2243;48.812;9.232;2022-07-17T15:50:12;33.80;44.60
4461;DHT22;2243;48.812;9.232;2022-07-17T15:52:43;33.70;45.10
4461;DHT22;2243;48.812;9.232;2022-07-17T15:55:15;33.50;45.10
4461;DHT22;2243;48.812;9.232;2022-07-17T15:57:45;33.10;45.00
4461;DHT22;2243;48.812;9.232;2022-07-17T16:00:17;33.20;45.60
4461;DHT22;2243;48.812;9.232;2022-07-17T16:02:48;33.30;45.50
4461;DHT22;2243;48.812;9.232;2022-07-17T16:05:19;33.20;46.40
4461;DHT22;2243;48.812;9.232;2022-07-17T16:07:50;33.40;44.40
4461;DHT22;2243;48.812;9.232;2022-07-17T16:10:25;33.40;44.60
4461;DHT22;2243;48.812;9.232;2022-07-17T16:12:56;33.90;44.00
4461;DHT22;2243;48.812;9.232;2022-07-17T16:15:27;33.90;44.60
4461;DHT22;2243;48.812;9.232;2022-07-17T16:17:58;34.20;44.10
4461;DHT22;2243;48.812;9.232;2022-07-17T16:20:29;34.20;43.50
4461;DHT22;2243;48.812;9.232;2022-07-17T16:23:00;34.10;43.80
4461;DHT22;2243;48.812;9.232;2022-07-17T16:25:32;34.20;43.50
4461;DHT22;2243;48.812;9.232;2022-07-17T16:28:03;34.40;44.40
4461;DHT22;2243;48.812;9.232;2022-07-17T16:30:34;34.00;43.60
4461;DHT22;2243;48.812;9.232;2022-07-17T16:33:05;34.00;43.70
4461;DHT22;2243;48.812;9.232;2022-07-17T16:35:36;33.70;44.40
4461;DHT22;2243;48.812;9.232;2022-07-17T16:38:09;33.90;44.40
4461;DHT22;2243;48.812;9.232;2022-07-17T16:40:41;33.90;44.20